createdAt,value
2023-02-14T00:00:44.461Z,0.40
2023-02-14T00:03:11.235Z,0.30
2023-02-14T00:05:38.003Z,0.40
2023-02-14T00:08:04.790Z,0.30
2023-02-14T00:10:31.495Z,0.30
2023-02-14T00:12:58.172Z,0.30
2023-02-14T00:15:27.374Z,0.20
2023-02-14T00:17:56.555Z,0.20
2023-02-14T00:20:23.750Z,0.10
2023-02-14T00:22:50.536Z,0.10
2023-02-14T00:25:18.190Z,0.10
2023-02-14T00:27:45.091Z,0.10
2023-02-14T00:30:13.810Z,0.00
2023-02-14T00:32:41.762Z,0.00
2023-02-14T00:35:10.095Z,0.00
2023-02-14T00:37:36.979Z,0.00
2023-02-14T00:40:05.396Z,0.00
2023-02-14T00:42:32.156Z,-0.10
2023-02-14T00:44:58.844Z,-0.10
2023-02-14T00:47:25.672Z,-0.10
2023-02-14T00:49:52.371Z,-0.10
2023-02-14T00:52:19.373Z,-0.10
2023-02-14T00:54:46.296Z,-0.10
2023-02-14T00:57:13.025Z,-0.20
2023-02-14T00:59:39.734Z,-0.20
2023-02-14T01:02:06.416Z,-0.20
2023-02-14T01:04:33.233Z,-0.20
2023-02-14T01:06:59.971Z,-0.20
2023-02-14T01:09:26.682Z,-0.20
2023-02-14T01:11:53.380Z,-0.20
2023-02-14T01:14:20.095Z,-0.20
2023-02-14T01:16:46.848Z,-0.20
2023-02-14T01:19:13.544Z,-0.30
2023-02-14T01:21:41.382Z,-0.30
2023-02-14T01:24:09.141Z,-0.30
2023-02-14T01:26:35.922Z,-0.40
2023-02-14T01:29:04.339Z,-0.40
2023-02-14T01:31:32.951Z,-0.40
2023-02-14T01:34:00.175Z,-0.40
2023-02-14T01:36:29.876Z,-0.40
2023-02-14T01:38:59.840Z,-0.50
2023-02-14T01:41:29.493Z,-0.50
2023-02-14T01:44:15.934Z,-0.50
2023-02-14T01:46:44.772Z,-0.50
2023-02-14T01:49:16.571Z,-0.50
2023-02-14T01:51:46.183Z,-0.50
2023-02-14T01:54:13.253Z,-0.60
2023-02-14T01:56:46.609Z,-0.60
2023-02-14T01:59:16.246Z,-0.60
2023-02-14T02:01:43.519Z,-0.60
2023-02-14T02:04:19.296Z,-0.60
2023-02-14T02:06:53.673Z,-0.60
2023-02-14T02:09:27.451Z,-0.60
2023-02-14T02:11:54.269Z,-0.70
2023-02-14T02:14:23.254Z,-0.70
2023-02-14T02:17:11.692Z,-0.70
2023-02-14T02:20:09.941Z,-0.70
2023-02-14T02:22:55.418Z,-0.70
2023-02-14T02:25:22.036Z,-0.70
2023-02-14T02:28:03.880Z,-0.70
2023-02-14T02:30:58.437Z,-0.80
2023-02-14T02:33:39.961Z,-0.80
2023-02-14T02:36:25.345Z,-0.80
2023-02-14T02:39:12.534Z,-0.80
2023-02-14T02:41:56.099Z,-0.80
2023-02-14T02:44:42.737Z,-0.90
2023-02-14T02:47:24.445Z,-0.80
2023-02-14T02:50:36.741Z,-0.90
2023-02-14T02:53:27.530Z,-0.90
2023-02-14T02:56:16.220Z,-0.90
2023-02-14T02:58:51.697Z,-0.90
2023-02-14T03:01:23.275Z,-0.90
2023-02-14T03:04:15.174Z,-0.90
2023-02-14T03:06:41.769Z,-1.00
2023-02-14T03:09:20.736Z,-1.00
2023-02-14T03:12:01.288Z,-1.00
2023-02-14T03:14:50.353Z,-1.00
2023-02-14T03:17:35.859Z,-1.00
2023-02-14T03:20:13.366Z,-1.10
2023-02-14T03:23:13.220Z,-1.00
2023-02-14T03:25:50.014Z,-1.10
2023-02-14T03:28:32.777Z,-1.10
2023-02-14T03:31:17.597Z,-1.10
2023-02-14T03:34:12.350Z,-1.10
2023-02-14T03:36:54.599Z,-1.10
2023-02-14T03:39:27.582Z,-1.10
2023-02-14T03:42:06.089Z,-1.00
2023-02-14T03:44:36.088Z,-1.00
2023-02-14T03:47:14.565Z,-1.00
2023-02-14T03:49:55.206Z,-0.90
2023-02-14T03:52:24.486Z,-0.90
2023-02-14T03:54:54.363Z,-0.90
2023-02-14T03:57:29.844Z,-0.90
2023-02-14T03:59:57.004Z,-0.80
2023-02-14T04:02:51.582Z,-0.80
2023-02-14T04:05:23.139Z,-0.80
2023-02-14T04:07:52.994Z,-0.80
2023-02-14T04:10:20.806Z,-0.80
2023-02-14T04:12:48.390Z,-0.70
2023-02-14T04:15:16.290Z,-0.80
2023-02-14T04:18:01.519Z,-0.70
2023-02-14T04:20:28.864Z,-0.80
2023-02-14T04:22:55.607Z,-0.80
2023-02-14T04:25:22.753Z,-0.80
2023-02-14T04:27:49.667Z,-0.70
2023-02-14T04:30:18.055Z,-0.70
2023-02-14T04:32:45.137Z,-0.70
2023-02-14T04:35:12.077Z,-0.70
2023-02-14T04:37:39.353Z,-0.70
2023-02-14T04:40:06.879Z,-0.70
2023-02-14T04:42:33.691Z,-0.70
2023-02-14T04:45:02.546Z,-0.60
2023-02-14T04:47:30.601Z,-0.60
2023-02-14T04:49:57.664Z,-0.70
2023-02-14T04:52:24.513Z,-0.60
2023-02-14T04:54:51.200Z,-0.60
2023-02-14T04:57:17.938Z,-0.60
2023-02-14T04:59:44.696Z,-0.60
2023-02-14T05:02:11.498Z,-0.60
2023-02-14T05:04:38.294Z,-0.50
2023-02-14T05:07:05.093Z,-0.50
2023-02-14T05:09:31.797Z,-0.50
2023-02-14T05:11:58.601Z,-0.50
2023-02-14T05:14:25.357Z,-0.50
2023-02-14T05:16:52.247Z,-0.50
2023-02-14T05:19:18.969Z,-0.50
2023-02-14T05:21:45.617Z,-0.50
2023-02-14T05:24:12.395Z,-0.50
2023-02-14T05:26:39.249Z,-0.50
2023-02-14T05:29:06.006Z,-0.50
2023-02-14T05:31:32.878Z,-0.50
2023-02-14T05:33:59.662Z,-0.50
2023-02-14T05:36:26.648Z,-0.50
2023-02-14T05:38:53.642Z,-0.50
2023-02-14T05:41:20.595Z,-0.50
2023-02-14T05:43:47.364Z,-0.50
2023-02-14T05:46:14.244Z,-0.50
2023-02-14T05:48:41.040Z,-0.40
2023-02-14T05:51:09.909Z,-0.50
2023-02-14T05:53:36.651Z,-0.40
2023-02-14T05:56:03.657Z,-0.50
2023-02-14T05:58:30.536Z,-0.40
2023-02-14T06:00:58.453Z,-0.40
2023-02-14T06:03:25.787Z,-0.40
2023-02-14T06:05:52.458Z,-0.40
2023-02-14T06:08:19.274Z,-0.40
2023-02-14T06:10:46.790Z,-0.40
2023-02-14T06:13:13.600Z,-0.40
2023-02-14T06:15:40.304Z,-0.40
2023-02-14T06:18:07.112Z,-0.40
2023-02-14T06:20:33.892Z,-0.40
2023-02-14T06:23:01.421Z,-0.40
2023-02-14T06:25:28.520Z,-0.40
2023-02-14T06:27:59.259Z,-0.40
2023-02-14T06:30:26.800Z,-0.50
2023-02-14T06:32:53.551Z,-0.50
2023-02-14T06:35:20.215Z,-0.40
2023-02-14T06:37:47.195Z,-0.50
2023-02-14T06:40:14.273Z,-0.40
2023-02-14T06:42:41.214Z,-0.40
2023-02-14T06:45:08.505Z,-0.40
2023-02-14T06:47:35.372Z,-0.40
2023-02-14T06:50:04.268Z,-0.50
2023-02-14T06:52:32.498Z,-0.50
2023-02-14T06:54:59.164Z,-0.50
2023-02-14T06:57:25.880Z,-0.50
2023-02-14T06:59:52.527Z,-0.50
2023-02-14T07:02:19.602Z,-0.50
2023-02-14T07:04:46.392Z,-0.50
2023-02-14T07:07:13.117Z,-0.40
2023-02-14T07:09:39.903Z,-0.40
2023-02-14T07:12:06.881Z,-0.30
2023-02-14T07:14:33.563Z,-0.40
2023-02-14T07:17:00.272Z,-0.30
2023-02-14T07:19:27.048Z,-0.30
2023-02-14T07:21:53.762Z,-0.30
2023-02-14T07:24:20.720Z,-0.30
2023-02-14T07:26:47.405Z,-0.40
2023-02-14T07:29:14.112Z,-0.40
2023-02-14T07:31:41.011Z,-0.30
2023-02-14T07:34:07.720Z,-0.30
2023-02-14T07:36:39.948Z,-0.30
2023-02-14T07:39:06.717Z,-0.20
2023-02-14T07:41:33.444Z,-0.20
2023-02-14T07:44:00.141Z,-0.10
2023-02-14T07:46:26.887Z,0.00
2023-02-14T07:48:53.759Z,0.00
2023-02-14T07:51:20.517Z,0.00
2023-02-14T07:53:47.394Z,0.10
2023-02-14T07:56:14.208Z,0.10
2023-02-14T07:58:40.959Z,0.20
2023-02-14T08:01:07.756Z,0.30
2023-02-14T08:03:34.515Z,0.30
2023-02-14T08:06:01.551Z,0.40
2023-02-14T08:08:30.395Z,0.50
2023-02-14T08:10:57.703Z,0.50
2023-02-14T08:13:24.638Z,0.50
2023-02-14T08:16:06.661Z,0.50
2023-02-14T08:18:36.736Z,0.60
2023-02-14T08:21:04.496Z,0.70
2023-02-14T08:23:31.345Z,0.70
2023-02-14T08:25:58.275Z,0.70
2023-02-14T08:28:26.146Z,0.70
2023-02-14T08:30:53.478Z,0.70
2023-02-14T08:33:21.001Z,0.80
2023-02-14T08:35:48.231Z,0.90
2023-02-14T08:38:15.113Z,1.00
2023-02-14T08:40:42.132Z,1.10
2023-02-14T08:43:09.332Z,1.20
2023-02-14T08:45:36.436Z,1.30
2023-02-14T08:48:09.054Z,1.20
2023-02-14T08:50:37.265Z,1.20
2023-02-14T08:53:12.073Z,1.20
2023-02-14T08:55:40.620Z,1.30
2023-02-14T08:58:08.020Z,1.40
2023-02-14T09:00:35.251Z,1.40
2023-02-14T09:03:02.154Z,1.40
2023-02-14T09:05:28.959Z,1.50
2023-02-14T09:07:56.571Z,1.70
2023-02-14T09:10:24.536Z,1.90
2023-02-14T09:12:51.693Z,2.10
2023-02-14T09:15:18.500Z,2.20
2023-02-14T09:17:45.547Z,2.20
2023-02-14T09:20:13.927Z,2.40
2023-02-14T09:22:40.707Z,2.70
2023-02-14T09:25:07.717Z,2.90
2023-02-14T09:27:34.665Z,3.00
2023-02-14T09:30:01.460Z,3.00
2023-02-14T09:32:29.291Z,3.10
2023-02-14T09:34:56.097Z,3.00
2023-02-14T09:37:23.071Z,2.90
2023-02-14T09:39:49.799Z,3.00
2023-02-14T09:42:19.221Z,3.10
2023-02-14T09:44:53.703Z,3.50
2023-02-14T09:47:30.641Z,3.70
2023-02-14T09:49:59.933Z,3.70
2023-02-14T09:52:30.080Z,3.70
2023-02-14T09:55:02.703Z,3.60
2023-02-14T09:57:45.099Z,3.90
2023-02-14T10:00:24.878Z,4.40
2023-02-14T10:03:26.091Z,5.30
2023-02-14T10:06:04.669Z,5.70
2023-02-14T10:08:52.743Z,5.80
2023-02-14T10:11:24.659Z,5.70
2023-02-14T10:14:13.768Z,5.70
2023-02-14T10:16:47.771Z,5.70
2023-02-14T10:19:34.440Z,5.60
2023-02-14T10:22:14.212Z,5.80
2023-02-14T10:24:54.144Z,6.10
2023-02-14T10:27:29.756Z,6.10
2023-02-14T10:29:56.675Z,6.30
2023-02-14T10:32:42.131Z,6.40
2023-02-14T10:35:43.366Z,6.50
2023-02-14T10:38:19.964Z,6.30
2023-02-14T10:41:17.841Z,6.30
2023-02-14T10:44:08.757Z,6.30
2023-02-14T10:46:52.780Z,6.20
2023-02-14T10:49:34.524Z,6.20
2023-02-14T10:52:08.155Z,6.60
2023-02-14T10:54:50.606Z,6.90
2023-02-14T10:57:26.248Z,7.10
2023-02-14T11:00:17.072Z,7.20
2023-02-14T11:02:46.948Z,7.10
2023-02-14T11:05:30.697Z,7.10
2023-02-14T11:07:59.158Z,7.10
2023-02-14T11:10:34.038Z,7.30
2023-02-14T11:13:00.888Z,7.50
2023-02-14T11:15:39.732Z,7.70
2023-02-14T11:18:23.101Z,7.80
2023-02-14T11:21:07.174Z,7.80
2023-02-14T11:23:47.222Z,7.80
2023-02-14T11:26:24.639Z,8.00
2023-02-14T11:29:04.020Z,8.20
2023-02-14T11:31:34.065Z,8.20
2023-02-14T11:34:05.058Z,8.20
2023-02-14T11:36:33.694Z,8.40
2023-02-14T11:39:20.364Z,8.30
2023-02-14T11:41:51.756Z,8.30
2023-02-14T11:44:27.355Z,8.50
2023-02-14T11:46:56.396Z,8.50
2023-02-14T11:49:32.883Z,8.60
2023-02-14T11:52:17.395Z,8.80
2023-02-14T11:54:49.465Z,8.90
2023-02-14T11:57:34.488Z,9.10
2023-02-14T12:00:05.157Z,9.10
2023-02-14T12:02:46.475Z,9.30
2023-02-14T12:05:20.891Z,9.30
2023-02-14T12:07:52.857Z,9.40
2023-02-14T12:10:25.146Z,9.30
2023-02-14T12:13:10.050Z,9.30
2023-02-14T12:15:38.357Z,9.40
2023-02-14T12:18:14.058Z,9.40
2023-02-14T12:21:12.862Z,9.50
2023-02-14T12:24:16.982Z,9.60
2023-02-14T12:27:02.748Z,9.50
2023-02-14T12:29:47.191Z,9.50
2023-02-14T12:32:21.520Z,9.40
2023-02-14T12:34:49.281Z,9.30
2023-02-14T12:38:07.398Z,9.40
2023-02-14T12:40:52.881Z,9.40
2023-02-14T12:43:54.029Z,9.40
2023-02-14T12:46:38.892Z,9.50
2023-02-14T12:49:24.447Z,9.50
2023-02-14T12:52:21.396Z,9.50
2023-02-14T12:55:26.488Z,9.60
2023-02-14T12:58:02.553Z,9.70
2023-02-14T13:00:37.918Z,9.90
2023-02-14T13:03:39.654Z,9.90
2023-02-14T13:06:29.713Z,10.00
2023-02-14T13:09:21.509Z,9.90
2023-02-14T13:12:21.335Z,10.00
2023-02-14T13:15:19.276Z,9.90
2023-02-14T13:17:59.399Z,9.80
2023-02-14T13:20:38.219Z,9.80
2023-02-14T13:23:05.934Z,9.70
2023-02-14T13:25:37.575Z,9.60
2023-02-14T13:28:07.353Z,9.60
2023-02-14T13:30:36.969Z,9.60
2023-02-14T13:33:25.051Z,9.60
2023-02-14T13:35:56.085Z,9.50
2023-02-14T13:38:24.555Z,9.50
2023-02-14T13:40:52.492Z,9.60
2023-02-14T13:43:50.242Z,9.60
2023-02-14T13:46:19.965Z,9.70
2023-02-14T13:49:29.112Z,9.70
2023-02-14T13:51:59.365Z,9.70
2023-02-14T13:54:29.764Z,9.70
2023-02-14T13:56:58.555Z,9.70
2023-02-14T13:59:29.414Z,9.70
2023-02-14T14:02:16.599Z,9.70
2023-02-14T14:04:43.300Z,9.60
2023-02-14T14:07:30.876Z,9.60
2023-02-14T14:10:02.461Z,9.50
2023-02-14T14:12:29.122Z,9.40
2023-02-14T14:15:05.199Z,9.40
2023-02-14T14:17:39.334Z,9.30
2023-02-14T14:20:21.359Z,9.40
2023-02-14T14:22:50.602Z,9.50
2023-02-14T14:25:37.356Z,9.50
2023-02-14T14:28:11.166Z,9.60
2023-02-14T14:30:40.226Z,9.50
2023-02-14T14:33:25.807Z,9.50
2023-02-14T14:35:57.002Z,9.50
2023-02-14T14:38:24.730Z,9.40
2023-02-14T14:40:52.828Z,9.40
2023-02-14T14:43:39.770Z,9.50
2023-02-14T14:46:11.400Z,9.40
2023-02-14T14:48:45.615Z,9.40
2023-02-14T14:51:34.256Z,9.40
2023-02-14T14:54:05.913Z,9.40
2023-02-14T14:56:40.587Z,9.20
2023-02-14T14:59:20.270Z,9.20
2023-02-14T15:01:47.937Z,9.10
2023-02-14T15:04:14.551Z,9.10
2023-02-14T15:06:41.603Z,8.90
2023-02-14T15:09:31.565Z,8.80
2023-02-14T15:12:19.521Z,8.60
2023-02-14T15:14:54.331Z,8.60
2023-02-14T15:17:26.391Z,8.50
2023-02-14T15:19:57.356Z,8.40
2023-02-14T15:22:27.057Z,8.30
2023-02-14T15:24:54.173Z,8.30
2023-02-14T15:27:26.017Z,8.20
2023-02-14T15:29:59.341Z,8.10
2023-02-14T15:32:29.360Z,8.10
2023-02-14T15:34:56.916Z,8.10
2023-02-14T15:37:25.372Z,8.00
2023-02-14T15:39:55.889Z,7.90
2023-02-14T15:42:32.701Z,7.80
2023-02-14T15:45:27.662Z,7.80
2023-02-14T15:47:55.957Z,7.60
2023-02-14T15:50:25.953Z,7.50
2023-02-14T15:53:02.606Z,7.40
2023-02-14T15:55:31.568Z,7.40
2023-02-14T15:58:05.397Z,7.30
2023-02-14T16:00:33.558Z,7.20
2023-02-14T16:03:06.190Z,7.20
2023-02-14T16:05:33.257Z,7.10
2023-02-14T16:08:22.740Z,7.00
2023-02-14T16:11:03.125Z,6.90
2023-02-14T16:13:35.222Z,6.90
2023-02-14T16:16:07.925Z,6.80
2023-02-14T16:18:37.711Z,6.70
2023-02-14T16:21:26.792Z,6.60
2023-02-14T16:24:06.663Z,6.60
2023-02-14T16:26:35.040Z,6.50
2023-02-14T16:29:10.490Z,6.40
2023-02-14T16:32:12.082Z,6.30
2023-02-14T16:34:35.089Z,6.20
2023-02-14T16:37:25.048Z,6.10
2023-02-14T16:39:54.435Z,6.00
2023-02-14T16:42:21.361Z,5.90
2023-02-14T16:44:48.570Z,5.80
2023-02-14T16:47:17.468Z,5.80
2023-02-14T16:49:44.862Z,5.80
2023-02-14T16:52:23.710Z,5.70
2023-02-14T16:54:50.776Z,5.70
2023-02-14T16:57:45.783Z,5.60
2023-02-14T17:00:13.163Z,5.50
2023-02-14T17:02:43.779Z,5.40
2023-02-14T17:05:11.118Z,5.30
2023-02-14T17:07:39.040Z,5.30
2023-02-14T17:10:15.250Z,5.20
2023-02-14T17:12:45.949Z,5.10
2023-02-14T17:15:21.475Z,5.10
2023-02-14T17:17:50.093Z,5.00
2023-02-14T17:20:19.833Z,4.90
2023-02-14T17:22:46.602Z,4.90
2023-02-14T17:25:14.090Z,4.80
2023-02-14T17:27:43.986Z,4.70
2023-02-14T17:30:12.575Z,4.60
2023-02-14T17:32:39.301Z,4.60
2023-02-14T17:35:08.851Z,4.50
2023-02-14T17:37:36.931Z,4.40
2023-02-14T17:40:05.920Z,4.30
2023-02-14T17:42:33.939Z,4.30
2023-02-14T17:45:01.406Z,4.20
2023-02-14T17:47:29.612Z,4.20
2023-02-14T17:49:57.453Z,4.10
2023-02-14T17:52:25.085Z,4.10
2023-02-14T17:54:52.198Z,4.00
2023-02-14T17:57:18.883Z,4.00
2023-02-14T17:59:46.830Z,3.90
2023-02-14T18:02:13.862Z,3.90
2023-02-14T18:04:41.686Z,3.80
2023-02-14T18:07:08.878Z,3.80
2023-02-14T18:09:35.670Z,3.80
2023-02-14T18:12:02.389Z,3.70
2023-02-14T18:14:29.142Z,3.60
2023-02-14T18:16:55.834Z,3.50
2023-02-14T18:19:22.875Z,3.40
2023-02-14T18:21:49.932Z,3.40
2023-02-14T18:24:17.041Z,3.20
2023-02-14T18:26:44.555Z,3.20
2023-02-14T18:29:14.972Z,3.10
2023-02-14T18:31:44.084Z,3.00
2023-02-14T18:34:11.729Z,2.90
2023-02-14T18:36:41.172Z,2.80
2023-02-14T18:39:09.152Z,2.70
2023-02-14T18:41:36.514Z,2.70
2023-02-14T18:44:03.487Z,2.60
2023-02-14T18:46:36.052Z,2.50
2023-02-14T18:49:13.726Z,2.40
2023-02-14T18:51:40.819Z,2.40
2023-02-14T18:54:07.658Z,2.30
2023-02-14T18:56:37.133Z,2.20
2023-02-14T18:59:07.201Z,2.20
2023-02-14T19:01:37.070Z,2.10
2023-02-14T19:04:06.420Z,2.10
2023-02-14T19:06:34.064Z,2.00
2023-02-14T19:09:02.503Z,2.10
2023-02-14T19:11:31.695Z,2.00
2023-02-14T19:14:01.525Z,2.00
2023-02-14T19:16:33.480Z,2.00
2023-02-14T19:19:02.511Z,2.00
2023-02-14T19:21:31.653Z,1.90
2023-02-14T19:23:59.196Z,1.80
2023-02-14T19:26:29.242Z,1.80
2023-02-14T19:28:58.761Z,1.70
2023-02-14T19:31:26.972Z,1.70
2023-02-14T19:33:54.651Z,1.70
2023-02-14T19:36:22.776Z,1.60
2023-02-14T19:38:53.432Z,1.60
2023-02-14T19:41:30.190Z,1.60
2023-02-14T19:43:59.287Z,1.60
2023-02-14T19:46:27.177Z,1.60
2023-02-14T19:48:56.394Z,1.60
2023-02-14T19:51:31.555Z,1.50
2023-02-14T19:54:00.632Z,1.50
2023-02-14T19:56:33.621Z,1.50
2023-02-14T19:59:01.531Z,1.50
2023-02-14T20:01:33.611Z,1.50
2023-02-14T20:04:01.803Z,1.50
2023-02-14T20:06:31.649Z,1.50
2023-02-14T20:08:59.513Z,1.50
2023-02-14T20:11:50.282Z,1.60
2023-02-14T20:14:38.388Z,1.50
2023-02-14T20:17:17.209Z,1.50
2023-02-14T20:19:43.966Z,1.50
2023-02-14T20:22:10.662Z,1.50
2023-02-14T20:24:38.061Z,1.50
2023-02-14T20:27:05.503Z,1.60
2023-02-14T20:29:33.202Z,1.60
2023-02-14T20:32:01.425Z,1.60
2023-02-14T20:34:28.296Z,1.60
2023-02-14T20:36:55.991Z,1.60
2023-02-14T20:39:27.851Z,1.60
2023-02-14T20:41:54.548Z,1.60
2023-02-14T20:44:22.119Z,1.60
2023-02-14T20:46:53.877Z,1.60
2023-02-14T20:49:21.989Z,1.60
2023-02-14T20:51:50.574Z,1.50
2023-02-14T20:54:18.328Z,1.50
2023-02-14T20:56:45.885Z,1.50
2023-02-14T20:59:13.641Z,1.40
2023-02-14T21:01:40.383Z,1.40
2023-02-14T21:04:07.110Z,1.40
2023-02-14T21:06:35.488Z,1.30
2023-02-14T21:09:03.182Z,1.30
2023-02-14T21:11:29.978Z,1.30
2023-02-14T21:13:59.884Z,1.20
2023-02-14T21:16:28.086Z,1.20
2023-02-14T21:19:00.821Z,1.20
2023-02-14T21:21:37.309Z,1.20
2023-02-14T21:24:10.121Z,1.20
2023-02-14T21:26:37.211Z,1.10
2023-02-14T21:29:04.781Z,1.10
2023-02-14T21:31:32.327Z,1.10
2023-02-14T21:34:00.690Z,1.10
2023-02-14T21:36:32.399Z,1.10
2023-02-14T21:39:00.487Z,1.10
2023-02-14T21:41:29.293Z,1.10
2023-02-14T21:43:57.240Z,1.10
2023-02-14T21:46:27.575Z,1.10
2023-02-14T21:49:14.002Z,1.10
2023-02-14T21:51:41.520Z,1.20
2023-02-14T21:54:08.823Z,1.20
2023-02-14T21:56:37.819Z,1.20
2023-02-14T21:59:05.021Z,1.20
2023-02-14T22:01:34.496Z,1.20
2023-02-14T22:04:04.573Z,1.20
2023-02-14T22:06:32.064Z,1.10
2023-02-14T22:09:00.164Z,1.20
2023-02-14T22:11:28.720Z,1.20
2023-02-14T22:13:56.479Z,1.20
2023-02-14T22:16:24.583Z,1.20
2023-02-14T22:18:51.857Z,1.20
2023-02-14T22:21:24.394Z,1.10
2023-02-14T22:23:51.374Z,1.10
2023-02-14T22:26:22.888Z,1.10
2023-02-14T22:28:50.824Z,1.00
2023-02-14T22:31:19.164Z,1.00
2023-02-14T22:33:47.183Z,1.00
2023-02-14T22:36:14.328Z,0.90
2023-02-14T22:38:41.276Z,0.90
2023-02-14T22:41:19.448Z,0.90
2023-02-14T22:43:46.382Z,0.90
2023-02-14T22:46:17.095Z,0.90
2023-02-14T22:48:44.238Z,0.90
2023-02-14T22:51:17.856Z,0.90
2023-02-14T22:53:44.589Z,1.00
2023-02-14T22:56:26.567Z,1.00
2023-02-14T22:58:58.520Z,1.00
2023-02-14T23:01:26.098Z,1.00
2023-02-14T23:03:57.839Z,1.10
2023-02-14T23:06:26.703Z,1.10
2023-02-14T23:08:54.595Z,1.10
2023-02-14T23:11:24.296Z,1.10
2023-02-14T23:14:09.996Z,1.10
2023-02-14T23:16:55.387Z,1.10
2023-02-14T23:19:43.427Z,1.10
2023-02-14T23:22:16.003Z,1.10
2023-02-14T23:24:43.103Z,1.10
2023-02-14T23:27:10.136Z,1.10
2023-02-14T23:29:37.704Z,1.10
2023-02-14T23:32:08.527Z,1.10
2023-02-14T23:34:38.079Z,1.10
2023-02-14T23:37:05.490Z,1.10
2023-02-14T23:39:35.623Z,1.10
2023-02-14T23:42:10.473Z,1.10
2023-02-14T23:44:37.796Z,1.10
2023-02-14T23:47:07.135Z,1.10
2023-02-14T23:49:35.761Z,1.00
2023-02-14T23:52:03.639Z,1.10
2023-02-14T23:54:30.345Z,1.20
2023-02-14T23:56:57.602Z,1.20
2023-02-14T23:59:24.905Z,1.10
